Time;durP1;ratioP1;P1;durP2;ratioP2;P2;SDS_P1;SDS_P2;PMS_P1;PMS_P2;Temp;Humidity;BMP_temperature;BMP_pressure;BME280_temperature;BME280_humidity;BME280_pressure;Samples;Min_cycle;Max_cycle;Signal;HPM_P1;HPM_P2
2021/03/17 00:02:17;;;;;;;1.33;0.70;;;11.30;52.70;;;;;;7721514;23;20016;-77
2021/03/17 00:05:38;;;;;;;1.98;0.90;;;11.30;53.20;;;;;;7747713;23;20024;-78
2021/03/17 00:08:58;;;;;;;2.55;1.08;;;11.30;53.70;;;;;;7724280;23;20015;-77
2021/03/17 00:12:17;;;;;;;1.00;0.70;;;11.20;53.80;;;;;;7724061;23;20016;-77
2021/03/17 00:15:41;;;;;;;1.98;0.88;;;11.20;54.10;;;;;;7707637;23;20016;-77
2021/03/17 00:19:00;;;;;;;6.47;0.82;;;11.10;54.10;;;;;;7746104;23;20044;-77
2021/03/17 00:22:20;;;;;;;1.50;0.93;;;11.10;54.60;;;;;;7746520;23;20087;-77
2021/03/17 00:25:41;;;;;;;0.95;0.70;;;11.00;55.00;;;;;;7683373;23;20016;-77
2021/03/17 00:29:00;;;;;;;3.22;0.85;;;11.00;55.10;;;;;;7754682;23;20012;-78
2021/03/17 00:32:20;;;;;;;0.88;0.70;;;11.00;55.20;;;;;;7750805;23;20012;-77
2021/03/17 00:35:40;;;;;;;2.22;0.95;;;10.90;55.40;;;;;;7748851;23;20016;-77
2021/03/17 00:39:00;;;;;;;0.95;0.73;;;10.90;55.50;;;;;;7745704;23;20087;-77
2021/03/17 00:42:19;;;;;;;1.10;0.90;;;10.80;55.40;;;;;;7722506;23;20012;-77
2021/03/17 00:45:39;;;;;;;2.08;0.77;;;10.80;55.40;;;;;;7746341;23;20020;-77
2021/03/17 00:48:58;;;;;;;5.32;0.90;;;10.70;55.70;;;;;;7721110;23;20024;-77
2021/03/17 00:52:04;;;;;;;2.53;0.85;;;10.70;55.80;;;;;;7726767;23;20069;-77
2021/03/17 00:55:24;;;;;;;1.65;0.70;;;10.60;56.00;;;;;;7707314;23;20020;-78
2021/03/17 00:58:42;;;;;;;;;;;10.50;56.20;;;;;;7724954;23;20008;-77
2021/03/17 01:01:44;;;;;;;1.65;0.80;;;10.50;56.40;;;;;;7704013;23;19918;-77
2021/03/17 01:04:45;;;;;;;4.18;0.95;;;10.40;56.30;;;;;;7723426;23;20288;-77
2021/03/17 01:07:46;;;;;;;1.67;0.82;;;10.30;56.80;;;;;;7723628;23;20017;-77
2021/03/17 01:10:48;;;;;;;1.55;0.70;;;10.20;57.10;;;;;;7723788;23;20012;-78
2021/03/17 01:13:49;;;;;;;0.95;0.85;;;10.20;57.30;;;;;;7723817;23;20023;-77
2021/03/17 01:16:50;;;;;;;1.38;0.60;;;10.10;57.70;;;;;;7750428;23;20316;-77
2021/03/17 01:19:51;;;;;;;0.98;0.57;;;10.00;58.00;;;;;;7687914;23;20020;-77
2021/03/17 01:22:54;;;;;;;1.40;0.93;;;10.00;58.20;;;;;;7693265;23;20392;-77
2021/03/17 01:25:56;;;;;;;1.20;0.90;;;9.90;59.00;;;;;;7720862;23;20019;-77
2021/03/17 01:28:57;;;;;;;1.77;0.90;;;9.80;58.70;;;;;;7723114;23;20289;-77
2021/03/17 01:31:58;;;;;;;2.47;1.10;;;9.80;58.80;;;;;;7697625;23;20008;-77
2021/03/17 01:34:59;;;;;;;0.85;0.70;;;9.80;58.90;;;;;;7722175;23;20096;-77
2021/03/17 01:38:00;;;;;;;3.10;1.00;;;9.80;59.00;;;;;;7699193;23;20016;-77
2021/03/17 01:41:02;;;;;;;4.97;0.90;;;9.70;59.10;;;;;;7751422;23;20082;-77
2021/03/17 01:44:04;;;;;;;1.80;0.95;;;9.60;59.40;;;;;;7724108;23;20016;-77
2021/03/17 01:47:05;;;;;;;1.65;0.80;;;9.60;59.70;;;;;;7724353;23;20020;-77
2021/03/17 01:50:13;;;;;;;1.48;1.08;;;9.50;59.80;;;;;;7725295;23;20040;-77
2021/03/17 01:53:18;;;;;;;5.15;1.20;;;9.50;60.00;;;;;;7738994;23;20008;-77
2021/03/17 01:56:19;;;;;;;0.98;0.65;;;9.60;60.20;;;;;;7722830;23;20016;-77
2021/03/17 01:59:21;;;;;;;2.38;0.90;;;9.60;60.10;;;;;;7684775;23;20491;-77
2021/03/17 02:02:23;;;;;;;3.72;1.23;;;9.60;60.20;;;;;;7720278;23;20031;-79
2021/03/17 02:05:34;;;;;;;2.55;1.10;;;9.60;60.10;;;;;;7751467;23;20019;-77
2021/03/17 02:08:38;;;;;;;2.92;1.30;;;9.70;60.30;;;;;;7724043;23;20012;-77
2021/03/17 02:11:49;;;;;;;4.45;1.38;;;9.60;60.20;;;;;;7753004;23;20055;-77
2021/03/17 02:15:18;;;;;;;1.42;0.88;;;9.60;60.60;;;;;;7725901;23;20031;-77
2021/03/17 02:18:33;;;;;;;;;;;9.60;60.70;;;;;;7575506;23;20422;-77
2021/03/17 02:21:53;;;;;;;1.33;0.80;;;9.70;60.50;;;;;;7599979;23;19976;-78
2021/03/17 02:25:03;;;;;;;2.28;0.95;;;9.70;60.50;;;;;;7586608;23;20010;-77
2021/03/17 02:28:27;;;;;;;4.32;1.00;;;9.70;60.50;;;;;;7551026;23;20010;-76
2021/03/17 02:31:51;;;;;;;2.33;0.98;;;9.70;60.50;;;;;;7575386;23;20036;-76
2021/03/17 02:34:54;;;;;;;4.38;1.25;;;9.70;60.40;;;;;;7600269;23;20457;-76
2021/03/17 02:37:58;;;;;;;1.55;1.10;;;9.80;60.50;;;;;;7600274;23;20025;-76
2021/03/17 02:41:01;;;;;;;3.83;1.20;;;9.80;60.40;;;;;;7601448;23;20489;-77
2021/03/17 02:44:10;;;;;;;1.58;1.10;;;9.70;60.30;;;;;;7576321;23;20378;-77
2021/03/17 02:47:12;;;;;;;2.05;1.13;;;9.80;60.30;;;;;;7601506;23;20018;-76
2021/03/17 02:50:14;;;;;;;4.63;0.90;;;9.80;60.30;;;;;;7600672;23;20054;-76
2021/03/17 02:53:19;;;;;;;2.50;1.02;;;9.70;60.30;;;;;;7599285;23;20010;-77
2021/03/17 02:56:22;;;;;;;1.92;0.90;;;9.70;60.30;;;;;;7723251;23;20016;-76
2021/03/17 02:59:32;;;;;;;2.25;1.05;;;9.70;60.20;;;;;;7725065;23;20030;-77
2021/03/17 03:02:34;;;;;;;1.00;0.73;;;9.70;60.40;;;;;;7725375;23;20023;-77
2021/03/17 03:05:37;;;;;;;3.13;1.40;;;9.70;60.50;;;;;;7675373;23;20021;-76
2021/03/17 03:08:41;;;;;;;0.80;0.57;;;9.70;60.40;;;;;;7686828;23;20083;-77
2021/03/17 03:11:42;;;;;;;1.48;0.90;;;9.70;60.40;;;;;;7711892;23;20016;-76
2021/03/17 03:14:44;;;;;;;1.60;0.77;;;9.70;60.40;;;;;;7725990;23;20035;-77
2021/03/17 03:17:46;;;;;;;1.27;0.95;;;9.60;60.30;;;;;;7753298;23;20013;-77
2021/03/17 03:20:48;;;;;;;2.45;1.23;;;9.60;60.60;;;;;;7724089;23;20020;-76
2021/03/17 03:23:52;;;;;;;1.83;1.00;;;9.60;60.60;;;;;;7751815;23;20043;-76
2021/03/17 03:26:55;;;;;;;2.05;0.95;;;9.50;60.60;;;;;;7698660;23;20032;-77
2021/03/17 03:29:57;;;;;;;2.03;0.85;;;9.50;60.70;;;;;;7752064;23;20023;-77
2021/03/17 03:32:58;;;;;;;0.70;0.68;;;9.50;60.80;;;;;;7726660;23;20012;-77
2021/03/17 03:35:59;;;;;;;1.25;0.82;;;9.50;60.70;;;;;;7727655;23;20081;-78
2021/03/17 03:39:01;;;;;;;3.97;0.90;;;9.60;60.70;;;;;;7701508;23;20024;-77
2021/03/17 03:42:02;;;;;;;1.80;1.23;;;9.50;60.60;;;;;;7727491;23;20012;-78
2021/03/17 03:45:07;;;;;;;1.50;1.10;;;9.50;60.70;;;;;;7720849;23;20387;-77
2021/03/17 03:48:09;;;;;;;2.53;1.05;;;9.60;60.80;;;;;;7719596;23;20023;-77
2021/03/17 03:51:10;;;;;;;2.33;1.05;;;9.60;60.80;;;;;;7753144;23;20031;-77
2021/03/17 03:54:41;;;;;;;2.03;1.20;;;9.60;60.80;;;;;;7726775;23;20008;-77
2021/03/17 03:57:46;;;;;;;4.53;1.17;;;9.60;60.90;;;;;;7748958;23;20332;-77
2021/03/17 04:00:48;;;;;;;3.17;0.95;;;9.60;61.00;;;;;;7722894;23;20016;-77
2021/03/17 04:03:55;;;;;;;1.58;1.10;;;9.60;61.20;;;;;;7725430;23;20019;-77
2021/03/17 04:07:17;;;;;;;2.83;1.00;;;9.60;61.20;;;;;;7725411;23;20032;-78
2021/03/17 04:10:21;;;;;;;2.42;1.40;;;9.50;61.40;;;;;;7711690;23;20372;-77
2021/03/17 04:13:25;;;;;;;3.25;1.40;;;9.50;61.40;;;;;;7728482;23;20034;-77
2021/03/17 04:16:28;;;;;;;1.60;1.15;;;9.40;61.40;;;;;;7703290;23;20323;-77
2021/03/17 04:19:31;;;;;;;1.67;0.80;;;9.40;61.30;;;;;;7726332;23;20039;-77
2021/03/17 04:22:37;;;;;;;1.90;0.80;;;9.40;61.30;;;;;;7728582;23;20012;-77
2021/03/17 04:25:44;;;;;;;2.10;1.10;;;9.40;61.20;;;;;;7728315;23;20032;-78
2021/03/17 04:28:47;;;;;;;1.67;1.00;;;9.40;61.40;;;;;;7701325;23;20047;-77
2021/03/17 04:31:50;;;;;;;2.92;1.10;;;9.40;61.80;;;;;;7716474;23;20022;-77
2021/03/17 04:34:53;;;;;;;3.50;1.30;;;9.30;61.90;;;;;;7728259;23;20074;-77
2021/03/17 04:37:55;;;;;;;1.25;0.88;;;9.30;61.90;;;;;;7703854;23;20054;-77
2021/03/17 04:40:57;;;;;;;2.67;0.90;;;9.40;62.10;;;;;;7753426;23;20346;-77
2021/03/17 04:43:59;;;;;;;1.58;1.05;;;9.40;62.10;;;;;;7728649;23;20035;-77
2021/03/17 04:47:01;;;;;;;1.83;1.17;;;9.40;62.10;;;;;;7728101;23;20020;-77
2021/03/17 04:50:04;;;;;;;2.17;1.05;;;9.40;62.10;;;;;;7754605;23;20005;-77
2021/03/17 04:53:07;;;;;;;2.28;1.20;;;9.40;62.20;;;;;;7728087;23;20407;-77
2021/03/17 04:56:10;;;;;;;2.47;1.33;;;9.50;62.30;;;;;;7754655;23;20043;-77
2021/03/17 04:59:16;;;;;;;2.15;1.40;;;9.50;63.00;;;;;;7755100;23;20027;-77
2021/03/17 05:02:20;;;;;;;1.30;0.95;;;9.60;62.20;;;;;;7703551;23;20023;-78
2021/03/17 05:05:23;;;;;;;1.40;1.05;;;9.60;62.10;;;;;;7755448;23;20475;-76
2021/03/17 05:08:25;;;;;;;1.45;1.25;;;9.60;62.10;;;;;;7704855;23;20027;-77
2021/03/17 05:11:28;;;;;;;2.05;1.35;;;9.60;62.00;;;;;;7730550;23;20012;-76
2021/03/17 05:14:32;;;;;;;4.45;1.67;;;9.70;62.10;;;;;;7705375;23;20024;-77
2021/03/17 05:17:34;;;;;;;2.60;1.35;;;9.70;62.00;;;;;;7730452;23;20462;-78
2021/03/17 05:20:40;;;;;;;2.28;1.45;;;9.70;62.00;;;;;;7730469;23;20365;-77
2021/03/17 05:23:42;;;;;;;2.58;1.23;;;9.70;62.00;;;;;;7730661;23;20099;-77
2021/03/17 05:26:44;;;;;;;3.03;1.33;;;9.70;62.10;;;;;;7755921;23;20016;-77
2021/03/17 05:29:46;;;;;;;3.30;1.85;;;9.70;62.10;;;;;;7755191;23;20083;-77
2021/03/17 05:32:48;;;;;;;2.75;1.38;;;9.70;62.10;;;;;;7730408;23;20012;-76
2021/03/17 05:35:49;;;;;;;3.05;1.40;;;9.70;62.20;;;;;;7757253;23;20342;-76
2021/03/17 05:38:53;;;;;;;6.20;1.70;;;9.70;62.20;;;;;;7730696;23;20026;-77
2021/03/17 05:41:55;;;;;;;3.58;1.60;;;9.70;62.30;;;;;;7730289;23;20031;-76
2021/03/17 05:44:55;;;;;;;3.00;1.50;;;9.60;62.40;;;;;;7705064;23;20028;-78
2021/03/17 05:47:58;;;;;;;4.40;1.50;;;9.60;62.40;;;;;;7705124;23;20070;-76
2021/03/17 05:51:00;;;;;;;3.03;1.60;;;9.70;62.40;;;;;;7730183;23;20414;-78
2021/03/17 05:54:01;;;;;;;2.03;1.30;;;9.60;62.20;;;;;;7730244;23;20015;-78
2021/03/17 05:57:03;;;;;;;2.45;1.30;;;9.60;62.20;;;;;;7704053;23;20368;-77
2021/03/17 06:00:07;;;;;;;3.30;1.75;;;9.60;62.30;;;;;;7730384;23;20354;-77
2021/03/17 06:03:10;;;;;;;3.33;2.08;;;9.60;62.40;;;;;;7731133;23;20066;-77
2021/03/17 06:06:13;;;;;;;2.47;1.50;;;9.70;62.60;;;;;;7731224;23;20448;-78
2021/03/17 06:09:16;;;;;;;1.65;1.20;;;9.70;62.60;;;;;;7705525;23;20012;-78
2021/03/17 06:12:21;;;;;;;1.58;1.05;;;9.80;62.50;;;;;;7705059;23;20424;-77
2021/03/17 06:15:23;;;;;;;3.33;1.70;;;9.70;62.40;;;;;;7703182;23;20363;-76
2021/03/17 06:18:41;;;;;;;3.00;1.80;;;9.70;62.40;;;;;;7728049;23;20020;-76
2021/03/17 06:21:43;;;;;;;3.33;1.70;;;9.70;62.50;;;;;;7748779;23;20026;-77
2021/03/17 06:24:44;;;;;;;3.20;1.65;;;9.60;62.50;;;;;;7700760;23;20115;-76
2021/03/17 06:27:46;;;;;;;6.55;2.08;;;9.60;62.80;;;;;;7751016;23;20016;-77
2021/03/17 06:30:47;;;;;;;2.90;1.38;;;9.60;63.00;;;;;;7727290;23;20065;-77
2021/03/17 06:33:53;;;;;;;2.95;1.35;;;9.50;63.20;;;;;;7702466;23;20016;-78
2021/03/17 06:36:55;;;;;;;2.55;1.65;;;9.40;63.20;;;;;;7727250;23;20043;-76
2021/03/17 06:39:58;;;;;;;4.47;1.30;;;9.50;63.40;;;;;;7700720;23;20027;-79
2021/03/17 06:43:09;;;;;;;3.33;1.45;;;9.40;63.30;;;;;;7723897;23;20020;-75
2021/03/17 06:46:20;;;;;;;1.73;1.05;;;9.50;63.30;;;;;;7724722;23;20111;-75
2021/03/17 06:49:40;;;;;;;3.65;1.33;;;9.60;63.30;;;;;;7726624;23;20045;-76
2021/03/17 06:52:45;;;;;;;3.20;1.63;;;9.60;62.80;;;;;;7727026;23;20091;-76
2021/03/17 06:55:46;;;;;;;1.95;1.00;;;9.60;62.80;;;;;;7728392;23;20020;-75
2021/03/17 06:58:50;;;;;;;1.92;1.20;;;9.60;62.80;;;;;;7728159;23;20038;-76
2021/03/17 07:01:52;;;;;;;2.33;1.17;;;9.70;62.80;;;;;;7729088;23;20300;-77
2021/03/17 07:04:53;;;;;;;3.28;1.52;;;9.80;62.70;;;;;;7729401;23;20319;-78
2021/03/17 07:07:56;;;;;;;2.42;1.45;;;9.80;62.60;;;;;;7755313;23;20031;-77
2021/03/17 07:10:59;;;;;;;6.20;1.40;;;9.80;62.60;;;;;;7704239;23;20300;-77
2021/03/17 07:14:02;;;;;;;2.03;1.65;;;9.90;62.60;;;;;;7730271;23;20020;-76
2021/03/17 07:17:21;;;;;;;4.43;1.85;;;9.90;62.40;;;;;;7705041;23;20095;-77
2021/03/17 07:20:40;;;;;;;3.25;1.45;;;9.90;62.20;;;;;;7726820;23;20024;-75
2021/03/17 07:23:44;;;;;;;5.15;1.17;;;9.90;62.10;;;;;;7753707;23;20024;-78
2021/03/17 07:26:45;;;;;;;5.13;1.45;;;9.90;62.10;;;;;;7704311;23;20012;-78
2021/03/17 07:30:03;;;;;;;5.25;1.92;;;10.00;63.10;;;;;;7728448;23;20012;-78
2021/03/17 07:33:06;;;;;;;4.60;1.70;;;10.00;62.10;;;;;;7726268;23;20288;-77
2021/03/17 07:36:08;;;;;;;6.78;1.65;;;10.10;61.90;;;;;;7726417;23;20016;-77
2021/03/17 07:39:15;;;;;;;5.63;2.28;;;10.20;62.00;;;;;;7752859;23;20027;-77
2021/03/17 07:42:18;;;;;;;4.63;1.90;;;10.20;61.70;;;;;;7725283;23;20023;-78
2021/03/17 07:45:20;;;;;;;2.42;1.48;;;10.20;61.30;;;;;;7726687;23;20040;-78
2021/03/17 07:48:21;;;;;;;3.35;1.67;;;10.30;61.20;;;;;;7701918;23;20016;-76
2021/03/17 07:51:22;;;;;;;2.28;1.60;;;10.20;60.90;;;;;;7699605;23;20412;-77
2021/03/17 07:54:28;;;;;;;2.58;1.58;;;10.20;61.00;;;;;;7739639;23;20099;-79
2021/03/17 07:57:31;;;;;;;3.60;1.63;;;10.20;61.00;;;;;;7754096;23;20052;-76
2021/03/17 08:00:33;;;;;;;2.83;1.80;;;10.20;61.00;;;;;;7754466;23;20016;-77
2021/03/17 08:03:35;;;;;;;3.97;1.63;;;10.30;61.10;;;;;;7702973;23;20478;-77
2021/03/17 08:06:36;;;;;;;2.67;1.88;;;10.30;60.90;;;;;;7754679;23;20083;-77
2021/03/17 08:09:39;;;;;;;4.93;2.25;;;10.40;60.90;;;;;;7753776;23;20023;-78
2021/03/17 08:12:43;;;;;;;2.55;1.63;;;10.50;60.60;;;;;;7702866;23;20016;-79
2021/03/17 08:15:45;;;;;;;5.65;1.70;;;10.50;60.50;;;;;;7703939;23;20105;-79
2021/03/17 08:18:48;;;;;;;4.57;1.83;;;10.60;60.30;;;;;;7727154;23;20039;-78
2021/03/17 08:21:48;;;;;;;3.63;1.98;;;10.60;60.00;;;;;;7702159;23;20150;-78
2021/03/17 08:24:49;;;;;;;3.25;1.70;;;10.60;59.90;;;;;;7752827;23;20090;-78
2021/03/17 08:28:24;;;;;;;2.03;1.65;;;10.60;59.90;;;;;;7702834;23;20074;-78
2021/03/17 08:31:37;;;;;;;5.55;1.98;;;10.60;59.80;;;;;;7719246;23;20016;-79
2021/03/17 08:34:39;;;;;;;8.25;1.95;;;10.50;60.00;;;;;;7748943;23;20012;-79
2021/03/17 08:37:48;;;;;;;3.67;2.30;;;10.60;59.90;;;;;;7698012;23;20031;-79
2021/03/17 08:40:49;;;;;;;5.68;2.33;;;10.60;59.90;;;;;;7722193;23;20407;-79
2021/03/17 08:43:50;;;;;;;6.50;2.40;;;10.50;59.90;;;;;;7698738;23;20012;-79
2021/03/17 08:46:53;;;;;;;22.88;3.15;;;10.50;60.10;;;;;;7719987;23;20016;-80
2021/03/17 08:50:18;;;;;;;6.35;2.70;;;10.50;60.00;;;;;;7695487;23;20038;-79
2021/03/17 08:53:38;;;;;;;11.15;3.15;;;10.50;60.20;;;;;;7718764;23;20008;-79
2021/03/17 08:56:50;;;;;;;7.07;3.00;;;10.50;60.40;;;;;;7695701;23;20024;-78
2021/03/17 09:00:00;;;;;;;10.75;3.13;;;10.50;60.40;;;;;;7699175;23;20012;-78
2021/03/17 09:03:02;;;;;;;4.40;2.80;;;10.60;60.50;;;;;;7721388;23;20039;-80
2021/03/17 09:06:20;;;;;;;7.20;3.50;;;10.60;60.30;;;;;;7748010;23;20026;-79
2021/03/17 09:09:21;;;;;;;4.15;2.85;;;10.70;60.10;;;;;;7718449;23;20157;-80
2021/03/17 09:12:25;;;;;;;11.25;3.92;;;10.80;59.80;;;;;;7722749;23;20024;-80
2021/03/17 09:15:26;;;;;;;4.30;3.05;;;10.80;59.60;;;;;;7697772;23;20483;-77
2021/03/17 09:18:27;;;;;;;6.88;3.80;;;10.90;59.60;;;;;;7723227;23;20020;-79
2021/03/17 09:21:30;;;;;;;10.27;4.97;;;11.00;59.60;;;;;;7688993;23;20066;-80
2021/03/17 09:24:34;;;;;;;6.38;3.72;;;11.00;59.50;;;;;;7696521;23;20036;-80
2021/03/17 09:27:47;;;;;;;5.47;3.20;;;11.10;59.30;;;;;;7702128;23;20028;-79
2021/03/17 09:30:56;;;;;;;3.47;2.40;;;11.10;59.30;;;;;;7772044;23;20063;-79
2021/03/17 09:33:57;;;;;;;9.52;3.67;;;11.20;59.30;;;;;;7749584;23;20031;-79
2021/03/17 09:37:24;;;;;;;6.22;3.47;;;11.30;59.40;;;;;;7749287;23;20040;-80
2021/03/17 09:40:26;;;;;;;6.85;3.40;;;11.40;59.30;;;;;;7727429;23;20016;-79
2021/03/17 09:43:34;;;;;;;8.05;3.65;;;11.50;59.30;;;;;;7708821;23;20408;-80
2021/03/17 09:46:43;;;;;;;5.05;3.28;;;11.60;59.30;;;;;;7737305;23;20028;-80
2021/03/17 09:49:44;;;;;;;5.43;3.78;;;11.70;59.20;;;;;;7719581;23;20411;-79
2021/03/17 09:52:46;;;;;;;6.57;3.25;;;11.80;59.00;;;;;;7718427;23;20027;-79
2021/03/17 09:55:48;;;;;;;6.75;3.70;;;11.90;58.80;;;;;;7738428;23;20027;-79
2021/03/17 09:58:49;;;;;;;7.25;4.10;;;12.00;58.70;;;;;;7760998;23;20031;-79
2021/03/17 10:02:04;;;;;;;9.27;4.00;;;12.00;58.70;;;;;;7730181;23;20016;-79
2021/03/17 10:05:06;;;;;;;5.30;3.53;;;12.00;58.60;;;;;;7732440;23;20035;-79
2021/03/17 10:08:09;;;;;;;7.00;3.50;;;12.10;58.70;;;;;;7728145;23;20012;-81
2021/03/17 10:11:16;;;;;;;5.68;1.63;;;12.10;58.80;;;;;;7725243;23;20023;-80
2021/03/17 10:14:19;;;;;;;3.33;1.73;;;12.20;58.80;;;;;;7705725;23;20392;-77
2021/03/17 10:17:23;;;;;;;2.15;0.85;;;12.20;58.70;;;;;;7676172;23;20059;-78
2021/03/17 10:20:28;;;;;;;1.65;1.20;;;12.20;58.80;;;;;;7673160;23;20043;-77
2021/03/17 10:23:29;;;;;;;1.27;1.10;;;12.20;58.70;;;;;;7698909;23;20055;-78
2021/03/17 10:26:32;;;;;;;2.53;1.30;;;12.10;58.80;;;;;;7698282;23;20031;-78
2021/03/17 10:29:37;;;;;;;2.45;0.80;;;12.00;58.80;;;;;;7686003;23;20064;-77
2021/03/17 10:32:40;;;;;;;1.23;1.00;;;12.00;58.90;;;;;;7753433;23;20022;-77
2021/03/17 10:35:43;;;;;;;0.93;0.70;;;11.90;59.10;;;;;;7700823;23;20311;-78
2021/03/17 10:38:52;;;;;;;1.52;0.90;;;11.80;59.20;;;;;;7726635;23;20016;-78
2021/03/17 10:41:53;;;;;;;2.38;1.30;;;11.80;59.00;;;;;;7725424;23;20344;-78
2021/03/17 10:45:08;;;;;;;3.13;0.98;;;11.80;59.10;;;;;;7702419;23;20415;-77
2021/03/17 10:48:24;;;;;;;1.05;0.70;;;11.80;59.30;;;;;;7754217;23;20020;-78
2021/03/17 10:51:25;;;;;;;1.35;0.50;;;11.80;58.90;;;;;;7725906;23;20069;-77
2021/03/17 10:54:32;;;;;;;2.40;0.63;;;11.70;58.80;;;;;;7728068;23;20023;-78
2021/03/17 10:57:33;;;;;;;1.73;0.75;;;11.80;58.80;;;;;;7701933;23;20418;-77
2021/03/17 11:00:35;;;;;;;2.28;1.08;;;11.70;58.60;;;;;;7725183;23;20119;-78
2021/03/17 11:03:40;;;;;;;0.45;0.30;;;11.80;58.90;;;;;;7724150;23;20414;-84
2021/03/17 11:06:57;;;;;;;0.50;0.43;;;11.80;58.50;;;;;;7726145;23;20026;-78
2021/03/17 11:09:58;;;;;;;0.50;0.50;;;11.80;58.60;;;;;;7674556;23;20021;-81
2021/03/17 11:13:19;;;;;;;0.75;0.45;;;11.90;58.40;;;;;;7686515;23;20122;-80
2021/03/17 11:16:20;;;;;;;0.70;0.55;;;11.90;58.20;;;;;;7721600;23;20020;-83
2021/03/17 11:19:26;;;;;;;1.08;0.82;;;12.00;58.30;;;;;;7725624;23;20016;-79
2021/03/17 11:22:33;;;;;;;1.85;0.65;;;12.00;58.30;;;;;;7751897;23;20304;-81
2021/03/17 11:25:37;;;;;;;1.70;0.77;;;12.10;58.40;;;;;;7701687;23;20312;-81
2021/03/17 11:28:40;;;;;;;1.42;0.75;;;12.10;58.30;;;;;;7701106;23;20096;-80
2021/03/17 11:31:42;;;;;;;1.20;0.63;;;12.10;58.50;;;;;;7725276;23;20055;-80
2021/03/17 11:34:43;;;;;;;0.63;0.50;;;12.00;58.60;;;;;;7724988;23;20307;-79
2021/03/17 11:37:44;;;;;;;0.85;0.55;;;12.10;58.50;;;;;;7752436;23;20020;-80
2021/03/17 11:40:46;;;;;;;1.20;0.68;;;12.20;58.30;;;;;;7726963;23;20042;-80
2021/03/17 11:43:47;;;;;;;1.58;0.70;;;12.30;57.90;;;;;;7729641;23;20031;-78
2021/03/17 11:46:50;;;;;;;0.93;0.38;;;12.40;57.30;;;;;;7767119;23;20024;-79
2021/03/17 11:49:51;;;;;;;0.35;0.30;;;12.40;57.30;;;;;;7742788;23;20016;-79
2021/03/17 11:52:54;;;;;;;1.60;0.65;;;12.40;57.40;;;;;;7738473;23;20062;-80
2021/03/17 11:55:55;;;;;;;0.68;0.20;;;12.30;57.40;;;;;;7702148;23;20090;-80
2021/03/17 11:58:56;;;;;;;0.57;0.25;;;12.30;57.10;;;;;;7698072;23;20020;-79
2021/03/17 12:01:57;;;;;;;0.57;0.55;;;12.10;56.80;;;;;;7741255;23;20008;-79
2021/03/17 12:04:58;;;;;;;0.75;0.30;;;12.00;57.10;;;;;;7707617;23;20339;-79
2021/03/17 12:07:59;;;;;;;4.45;1.20;;;11.90;57.30;;;;;;7705739;23;20012;-79
2021/03/17 12:11:02;;;;;;;0.88;0.38;;;11.90;57.40;;;;;;7705867;23;20016;-81
2021/03/17 12:14:03;;;;;;;0.32;0.20;;;11.80;57.60;;;;;;7731592;23;20020;-80
2021/03/17 12:17:04;;;;;;;0.98;0.40;;;11.80;57.70;;;;;;7710888;23;20051;-79
2021/03/17 12:20:07;;;;;;;0.47;0.40;;;11.80;57.80;;;;;;7702360;23;20018;-78
2021/03/17 12:23:09;;;;;;;0.35;0.35;;;11.70;57.80;;;;;;7717656;23;20074;-81
2021/03/17 12:26:10;;;;;;;1.35;0.30;;;11.70;58.30;;;;;;7721515;23;20020;-79
2021/03/17 12:29:11;;;;;;;1.13;0.57;;;11.70;58.30;;;;;;7702005;23;20442;-78
2021/03/17 12:32:12;;;;;;;1.95;0.68;;;11.70;58.50;;;;;;7728744;23;21053;-83
2021/03/17 12:35:15;;;;;;;0.38;0.38;;;11.70;58.50;;;;;;7707131;23;21156;-85
2021/03/17 12:38:16;;;;;;;1.08;0.68;;;11.70;58.80;;;;;;7730423;23;20007;-80
2021/03/17 12:41:17;;;;;;;0.50;0.35;;;11.60;59.10;;;;;;7703592;23;20063;-80
2021/03/17 12:44:18;;;;;;;0.80;0.55;;;11.60;59.40;;;;;;7702559;23;20095;-79
2021/03/17 12:47:19;;;;;;;1.65;0.45;;;11.60;60.00;;;;;;7762336;23;20065;-79
2021/03/17 12:50:23;;;;;;;2.30;0.50;;;11.50;60.30;;;;;;7738818;23;20034;-80
2021/03/17 12:53:24;;;;;;;0.40;0.40;;;11.50;60.40;;;;;;7735355;23;20017;-79
2021/03/17 12:56:25;;;;;;;0.20;0.20;;;11.70;60.70;;;;;;7725670;23;20016;-80
2021/03/17 12:59:26;;;;;;;0.32;0.32;;;11.90;60.20;;;;;;7726080;23;20020;-82
2021/03/17 13:02:27;;;;;;;1.02;0.45;;;12.20;59.60;;;;;;7700294;23;20027;-81
2021/03/17 13:05:28;;;;;;;0.20;0.20;;;12.20;59.30;;;;;;7750620;23;20078;-82
2021/03/17 13:08:30;;;;;;;0.47;0.32;;;12.00;60.00;;;;;;7726305;23;20019;-82
2021/03/17 13:11:32;;;;;;;0.63;0.40;;;11.80;59.50;;;;;;7701900;23;20039;-81
2021/03/17 13:14:35;;;;;;;0.77;0.40;;;11.50;60.60;;;;;;7703738;23;20264;-81
2021/03/17 13:17:36;;;;;;;0.50;0.30;;;11.30;61.60;;;;;;7704385;23;20012;-81
2021/03/17 13:20:38;;;;;;;0.63;0.32;;;11.10;62.00;;;;;;7729649;23;20016;-81
2021/03/17 13:23:39;;;;;;;2.42;0.50;;;10.90;62.30;;;;;;7753658;23;20013;-87
2021/03/17 13:26:41;;;;;;;0.95;0.45;;;10.90;62.40;;;;;;7672974;23;20023;-86
2021/03/17 13:29:45;;;;;;;1.58;0.82;;;10.80;62.40;;;;;;7672151;23;20012;-84
2021/03/17 13:32:46;;;;;;;0.43;0.43;;;10.80;62.90;;;;;;7677177;23;20032;-84
2021/03/17 13:35:47;;;;;;;3.50;0.30;;;10.80;63.10;;;;;;7663570;23;20060;-85
2021/03/17 13:38:57;;;;;;;0.88;0.35;;;10.80;62.50;;;;;;7669016;23;20056;-86
2021/03/17 13:41:59;;;;;;;0.70;0.28;;;10.80;62.40;;;;;;7674217;23;20262;-85
2021/03/17 13:45:00;;;;;;;0.30;0.30;;;10.80;62.50;;;;;;7704632;23;20071;-85
2021/03/17 13:48:03;;;;;;;0.32;0.32;;;10.90;62.70;;;;;;7705991;23;20031;-83
2021/03/17 13:51:04;;;;;;;0.40;0.25;;;11.00;62.80;;;;;;7665083;23;20016;-82
2021/03/17 13:54:06;;;;;;;1.45;0.38;;;11.00;62.60;;;;;;7715637;23;20036;-82
2021/03/17 13:57:07;;;;;;;1.05;0.50;;;11.00;62.30;;;;;;7729172;23;20020;-80
2021/03/17 14:00:12;;;;;;;1.70;0.50;;;11.00;62.40;;;;;;7703878;23;20099;-80
2021/03/17 14:03:13;;;;;;;1.25;0.77;;;10.90;62.50;;;;;;7727036;23;20078;-81
2021/03/17 14:06:14;;;;;;;2.28;1.08;;;10.80;62.10;;;;;;7755267;23;20016;-81
2021/03/17 14:09:15;;;;;;;1.63;1.00;;;10.80;62.20;;;;;;7701506;23;20012;-81
2021/03/17 14:12:16;;;;;;;2.28;0.82;;;10.80;62.20;;;;;;7726527;23;20093;-84
2021/03/17 14:15:19;;;;;;;0.88;0.60;;;10.80;62.00;;;;;;7705099;23;20020;-83
2021/03/17 14:18:20;;;;;;;0.60;0.50;;;11.00;62.10;;;;;;7705683;23;20079;-84
2021/03/17 14:21:21;;;;;;;0.65;0.22;;;11.10;61.90;;;;;;7729361;23;20036;-82
2021/03/17 14:24:23;;;;;;;0.38;0.38;;;11.20;61.60;;;;;;7754562;23;20051;-81
2021/03/17 14:27:24;;;;;;;0.75;0.60;;;11.30;61.10;;;;;;7729134;23;20069;-79
2021/03/17 14:30:25;;;;;;;1.35;0.55;;;11.10;59.90;;;;;;7754389;23;20319;-78
2021/03/17 14:33:27;;;;;;;0.40;0.40;;;11.20;59.40;;;;;;7703183;23;20066;-77
2021/03/17 14:36:28;;;;;;;0.60;0.60;;;11.30;59.50;;;;;;7755322;23;20031;-80
2021/03/17 14:39:30;;;;;;;0.52;0.50;;;11.40;59.40;;;;;;7727486;23;20016;-79
2021/03/17 14:42:31;;;;;;;0.75;0.50;;;11.40;58.90;;;;;;7728096;23;20288;-78
2021/03/17 14:45:34;;;;;;;0.35;0.35;;;11.40;58.90;;;;;;7705250;23;20024;-76
2021/03/17 14:48:35;;;;;;;0.45;0.45;;;11.40;58.60;;;;;;7756051;23;20023;-78
2021/03/17 14:51:36;;;;;;;1.60;0.60;;;11.50;58.60;;;;;;7727753;23;20031;-78
2021/03/17 14:54:38;;;;;;;0.22;0.20;;;11.70;58.80;;;;;;7728743;23;20027;-77
2021/03/17 14:57:39;;;;;;;6.90;1.20;;;11.70;58.70;;;;;;7754600;23;20024;-78
2021/03/17 15:00:41;;;;;;;6.45;0.63;;;11.80;58.60;;;;;;7728635;23;20027;-78
2021/03/17 15:03:42;;;;;;;0.32;0.30;;;11.90;58.30;;;;;;7727322;23;20016;-76
2021/03/17 15:06:43;;;;;;;0.85;0.40;;;12.00;58.00;;;;;;7702922;23;20077;-78
2021/03/17 15:09:44;;;;;;;0.40;0.32;;;12.10;57.70;;;;;;7689560;23;20019;-77
2021/03/17 15:12:46;;;;;;;1.00;0.95;;;12.20;57.60;;;;;;7727370;23;20016;-77
2021/03/17 15:15:47;;;;;;;0.35;0.32;;;12.30;57.50;;;;;;7727759;23;20438;-78
2021/03/17 15:18:48;;;;;;;0.32;0.30;;;12.40;57.30;;;;;;7703122;23;20016;-77
2021/03/17 15:21:49;;;;;;;0.85;0.60;;;12.60;56.80;;;;;;7728658;23;20381;-79
2021/03/17 15:24:50;;;;;;;0.30;0.30;;;12.80;56.60;;;;;;7754619;23;20380;-77
2021/03/17 15:27:51;;;;;;;0.80;0.38;;;12.90;56.40;;;;;;7728637;23;20016;-79
2021/03/17 15:31:00;;;;;;;3.33;1.05;;;13.10;56.20;;;;;;7695256;23;20016;-81
2021/03/17 15:34:01;;;;;;;2.13;1.13;;;13.10;56.10;;;;;;7755200;23;20008;-78
2021/03/17 15:37:02;;;;;;;0.90;0.70;;;13.10;56.10;;;;;;7729449;23;20428;-80
2021/03/17 15:40:09;;;;;;;0.82;0.47;;;13.10;56.20;;;;;;7754433;23;20020;-78
2021/03/17 15:43:11;;;;;;;0.93;0.30;;;13.00;56.50;;;;;;7729935;23;20087;-78
2021/03/17 15:46:12;;;;;;;0.30;0.30;;;12.80;56.70;;;;;;7703223;23;20020;-79
2021/03/17 15:49:13;;;;;;;1.27;0.38;;;12.70;56.50;;;;;;7728830;23;20466;-81
2021/03/17 15:52:15;;;;;;;0.40;0.20;;;12.60;56.40;;;;;;7754717;23;20012;-80
2021/03/17 15:55:18;;;;;;;1.27;0.40;;;12.40;56.60;;;;;;7755145;23;20024;-80
2021/03/17 15:58:20;;;;;;;0.60;0.05;;;12.30;55.90;;;;;;7703270;23;20061;-80
2021/03/17 16:01:22;;;;;;;0.20;0.17;;;12.10;55.20;;;;;;7703130;23;20476;-79
2021/03/17 16:04:23;;;;;;;1.17;0.60;;;12.00;55.50;;;;;;7726482;23;20035;-80
2021/03/17 16:07:25;;;;;;;0.85;0.43;;;11.90;56.20;;;;;;7727840;23;20102;-79